Terminal Aerodrome Forecast
Issued by NWS Charleston, WV

Home | Current Version | Previous Version | Text Only | Print | Product List | Glossary On
Versions: 1 2 3 4 5 6 7 8 9 10 11 12 13 14 15 16 17 18 19 20 21 22 23 24
000
FTUS41 KRLX 161128 AAB
TAFPKB
TAF AMD
KPKB 161128Z 1611/1712 00000KT 2SM -SN OVC010
      TEMPO 1612/1615 3/4SM -SN OVC007
     FM161500 28004KT 3SM -SN OVC015
      TEMPO 1615/1617 1SM -SN OVC007
     FM161700 27005KT 5SM -SN OVC025
      TEMPO 1617/1620 2SM -SN OVC015
     FM162200 30004KT P6SM BKN025=

USA.gov is the U.S. government's official web portal to all federal, state and local government web resources and services.